sensor_id;sensor_type;location;lat;lon;timestamp;P1;durP1;ratioP1;P2;durP2;ratioP2
21822;SDS011;11074;48.596;9.238;2023-06-10T00:01:36;7.45;;;6.18;;
21822;SDS011;11074;48.596;9.238;2023-06-10T00:04:02;8.13;;;7.25;;
21822;SDS011;11074;48.596;9.238;2023-06-10T00:06:29;7.88;;;7.07;;
21822;SDS011;11074;48.596;9.238;2023-06-10T00:09:03;8.38;;;7.20;;
21822;SDS011;11074;48.596;9.238;2023-06-10T00:11:35;7.97;;;6.82;;
21822;SDS011;11074;48.596;9.238;2023-06-10T00:14:02;7.85;;;6.95;;
21822;SDS011;11074;48.596;9.238;2023-06-10T00:16:28;6.82;;;6.10;;
21822;SDS011;11074;48.596;9.238;2023-06-10T00:18:55;6.18;;;5.57;;
21822;SDS011;11074;48.596;9.238;2023-06-10T00:21:25;6.47;;;5.72;;
21822;SDS011;11074;48.596;9.238;2023-06-10T00:23:51;10.20;;;6.30;;
21822;SDS011;11074;48.596;9.238;2023-06-10T00:26:17;7.68;;;6.97;;
21822;SDS011;11074;48.596;9.238;2023-06-10T00:28:43;8.50;;;7.20;;
21822;SDS011;11074;48.596;9.238;2023-06-10T00:31:10;9.60;;;5.90;;
21822;SDS011;11074;48.596;9.238;2023-06-10T00:33:36;7.55;;;6.03;;
21822;SDS011;11074;48.596;9.238;2023-06-10T00:36:01;8.20;;;5.68;;
21822;SDS011;11074;48.596;9.238;2023-06-10T00:38:27;6.57;;;5.60;;
21822;SDS011;11074;48.596;9.238;2023-06-10T00:40:53;7.28;;;5.97;;
21822;SDS011;11074;48.596;9.238;2023-06-10T00:43:18;7.65;;;6.35;;
21822;SDS011;11074;48.596;9.238;2023-06-10T00:45:44;9.43;;;6.43;;
21822;SDS011;11074;48.596;9.238;2023-06-10T00:48:10;8.32;;;6.10;;
21822;SDS011;11074;48.596;9.238;2023-06-10T00:50:35;8.38;;;5.78;;
21822;SDS011;11074;48.596;9.238;2023-06-10T00:53:04;7.07;;;6.05;;
21822;SDS011;11074;48.596;9.238;2023-06-10T00:55:31;7.22;;;6.28;;
21822;SDS011;11074;48.596;9.238;2023-06-10T00:57:57;7.00;;;6.30;;
21822;SDS011;11074;48.596;9.238;2023-06-10T01:00:24;7.65;;;6.05;;
21822;SDS011;11074;48.596;9.238;2023-06-10T01:02:50;7.30;;;6.45;;
21822;SDS011;11074;48.596;9.238;2023-06-10T01:05:20;7.53;;;6.00;;
21822;SDS011;11074;48.596;9.238;2023-06-10T01:07:49;8.80;;;6.22;;
21822;SDS011;11074;48.596;9.238;2023-06-10T01:10:48;7.25;;;6.47;;
21822;SDS011;11074;48.596;9.238;2023-06-10T01:13:25;9.55;;;6.32;;
21822;SDS011;11074;48.596;9.238;2023-06-10T01:15:54;7.60;;;6.35;;
21822;SDS011;11074;48.596;9.238;2023-06-10T01:18:21;7.03;;;6.32;;
21822;SDS011;11074;48.596;9.238;2023-06-10T01:20:47;7.97;;;6.65;;
21822;SDS011;11074;48.596;9.238;2023-06-10T01:23:13;7.03;;;6.32;;
21822;SDS011;11074;48.596;9.238;2023-06-10T01:25:51;8.68;;;6.60;;
21822;SDS011;11074;48.596;9.238;2023-06-10T01:28:30;7.78;;;6.97;;
21822;SDS011;11074;48.596;9.238;2023-06-10T01:33:59;8.80;;;6.63;;
21822;SDS011;11074;48.596;9.238;2023-06-10T01:36:27;9.05;;;6.95;;
21822;SDS011;11074;48.596;9.238;2023-06-10T01:38:54;9.13;;;6.80;;
21822;SDS011;11074;48.596;9.238;2023-06-10T01:41:22;7.85;;;6.18;;
21822;SDS011;11074;48.596;9.238;2023-06-10T01:43:49;8.85;;;7.30;;
21822;SDS011;11074;48.596;9.238;2023-06-10T01:46:15;7.63;;;6.40;;
21822;SDS011;11074;48.596;9.238;2023-06-10T01:48:44;7.35;;;6.55;;
21822;SDS011;11074;48.596;9.238;2023-06-10T01:51:10;8.40;;;6.53;;
21822;SDS011;11074;48.596;9.238;2023-06-10T01:53:36;13.15;;;6.80;;
21822;SDS011;11074;48.596;9.238;2023-06-10T01:56:01;12.40;;;6.95;;
21822;SDS011;11074;48.596;9.238;2023-06-10T01:58:27;13.48;;;6.72;;
21822;SDS011;11074;48.596;9.238;2023-06-10T02:00:53;16.75;;;7.15;;
21822;SDS011;11074;48.596;9.238;2023-06-10T02:03:18;10.68;;;6.90;;
21822;SDS011;11074;48.596;9.238;2023-06-10T02:05:44;8.10;;;6.50;;
21822;SDS011;11074;48.596;9.238;2023-06-10T02:08:10;8.43;;;6.80;;
21822;SDS011;11074;48.596;9.238;2023-06-10T02:10:35;9.05;;;6.80;;
21822;SDS011;11074;48.596;9.238;2023-06-10T02:13:01;9.40;;;6.60;;
21822;SDS011;11074;48.596;9.238;2023-06-10T02:15:27;7.50;;;6.70;;
21822;SDS011;11074;48.596;9.238;2023-06-10T02:17:52;7.75;;;6.78;;
21822;SDS011;11074;48.596;9.238;2023-06-10T02:20:19;8.40;;;7.32;;
21822;SDS011;11074;48.596;9.238;2023-06-10T02:22:45;9.13;;;6.65;;
21822;SDS011;11074;48.596;9.238;2023-06-10T02:25:11;10.98;;;6.20;;
21822;SDS011;11074;48.596;9.238;2023-06-10T02:27:37;6.40;;;5.70;;
21822;SDS011;11074;48.596;9.238;2023-06-10T02:30:03;8.23;;;6.18;;
21822;SDS011;11074;48.596;9.238;2023-06-10T02:32:30;7.32;;;6.53;;
21822;SDS011;11074;48.596;9.238;2023-06-10T02:34:55;8.75;;;6.22;;
21822;SDS011;11074;48.596;9.238;2023-06-10T02:37:22;8.40;;;6.28;;
21822;SDS011;11074;48.596;9.238;2023-06-10T02:39:48;6.82;;;6.18;;
21822;SDS011;11074;48.596;9.238;2023-06-10T02:42:13;6.57;;;5.80;;
21822;SDS011;11074;48.596;9.238;2023-06-10T02:44:39;7.03;;;6.32;;
21822;SDS011;11074;48.596;9.238;2023-06-10T02:47:05;8.15;;;7.07;;
21822;SDS011;11074;48.596;9.238;2023-06-10T02:49:31;8.88;;;7.32;;
21822;SDS011;11074;48.596;9.238;2023-06-10T02:51:56;7.38;;;6.68;;
21822;SDS011;11074;48.596;9.238;2023-06-10T02:54:25;7.63;;;6.80;;
21822;SDS011;11074;48.596;9.238;2023-06-10T02:56:51;8.65;;;6.70;;
21822;SDS011;11074;48.596;9.238;2023-06-10T02:59:17;9.10;;;7.25;;
21822;SDS011;11074;48.596;9.238;2023-06-10T03:01:43;9.70;;;6.97;;
21822;SDS011;11074;48.596;9.238;2023-06-10T03:04:09;7.85;;;7.05;;
21822;SDS011;11074;48.596;9.238;2023-06-10T03:06:37;7.93;;;6.63;;
21822;SDS011;11074;48.596;9.238;2023-06-10T03:09:03;8.60;;;6.72;;
21822;SDS011;11074;48.596;9.238;2023-06-10T03:11:29;7.70;;;6.55;;
21822;SDS011;11074;48.596;9.238;2023-06-10T03:13:55;7.13;;;6.43;;
21822;SDS011;11074;48.596;9.238;2023-06-10T03:16:22;7.18;;;6.47;;
21822;SDS011;11074;48.596;9.238;2023-06-10T03:18:50;7.55;;;6.72;;
21822;SDS011;11074;48.596;9.238;2023-06-10T03:21:15;8.30;;;6.35;;
21822;SDS011;11074;48.596;9.238;2023-06-10T03:23:41;8.15;;;6.35;;
21822;SDS011;11074;48.596;9.238;2023-06-10T03:26:07;8.77;;;7.05;;
21822;SDS011;11074;48.596;9.238;2023-06-10T03:28:34;8.68;;;6.38;;
21822;SDS011;11074;48.596;9.238;2023-06-10T03:31:00;7.22;;;6.35;;
21822;SDS011;11074;48.596;9.238;2023-06-10T03:33:26;6.88;;;6.18;;
21822;SDS011;11074;48.596;9.238;2023-06-10T03:35:52;7.85;;;6.68;;
21822;SDS011;11074;48.596;9.238;2023-06-10T03:38:18;8.95;;;6.90;;
21822;SDS011;11074;48.596;9.238;2023-06-10T03:40:44;6.85;;;6.15;;
21822;SDS011;11074;48.596;9.238;2023-06-10T03:43:10;8.45;;;7.03;;
21822;SDS011;11074;48.596;9.238;2023-06-10T03:45:35;7.57;;;6.80;;
21822;SDS011;11074;48.596;9.238;2023-06-10T03:48:01;8.13;;;6.88;;
21822;SDS011;11074;48.596;9.238;2023-06-10T03:50:28;10.05;;;7.15;;
21822;SDS011;11074;48.596;9.238;2023-06-10T03:52:54;8.30;;;6.72;;
21822;SDS011;11074;48.596;9.238;2023-06-10T03:55:20;7.20;;;6.47;;
21822;SDS011;11074;48.596;9.238;2023-06-10T03:57:47;10.48;;;6.85;;
21822;SDS011;11074;48.596;9.238;2023-06-10T04:00:14;10.18;;;6.93;;
21822;SDS011;11074;48.596;9.238;2023-06-10T04:02:41;7.78;;;6.80;;
21822;SDS011;11074;48.596;9.238;2023-06-10T04:05:11;8.05;;;6.88;;
21822;SDS011;11074;48.596;9.238;2023-06-10T04:07:37;8.48;;;6.55;;
21822;SDS011;11074;48.596;9.238;2023-06-10T04:10:07;7.20;;;6.45;;
21822;SDS011;11074;48.596;9.238;2023-06-10T04:12:34;9.20;;;6.85;;
21822;SDS011;11074;48.596;9.238;2023-06-10T04:15:01;7.85;;;7.00;;
21822;SDS011;11074;48.596;9.238;2023-06-10T04:17:27;9.55;;;7.28;;
21822;SDS011;11074;48.596;9.238;2023-06-10T04:19:53;8.15;;;7.28;;
21822;SDS011;11074;48.596;9.238;2023-06-10T04:22:19;9.95;;;7.18;;
21822;SDS011;11074;48.596;9.238;2023-06-10T04:24:45;8.57;;;7.10;;
21822;SDS011;11074;48.596;9.238;2023-06-10T04:27:11;8.48;;;6.80;;
21822;SDS011;11074;48.596;9.238;2023-06-10T04:29:37;8.38;;;7.55;;
21822;SDS011;11074;48.596;9.238;2023-06-10T04:32:03;8.90;;;7.93;;
21822;SDS011;11074;48.596;9.238;2023-06-10T04:34:32;8.23;;;7.43;;
21822;SDS011;11074;48.596;9.238;2023-06-10T04:36:58;8.85;;;7.63;;
21822;SDS011;11074;48.596;9.238;2023-06-10T04:39:24;9.38;;;7.57;;
21822;SDS011;11074;48.596;9.238;2023-06-10T04:41:49;9.13;;;7.57;;
21822;SDS011;11074;48.596;9.238;2023-06-10T04:44:15;7.78;;;7.00;;
21822;SDS011;11074;48.596;9.238;2023-06-10T04:46:41;8.63;;;7.05;;
21822;SDS011;11074;48.596;9.238;2023-06-10T04:49:07;9.40;;;7.00;;
21822;SDS011;11074;48.596;9.238;2023-06-10T04:51:32;10.25;;;7.25;;
21822;SDS011;11074;48.596;9.238;2023-06-10T04:53:59;7.45;;;6.57;;
21822;SDS011;11074;48.596;9.238;2023-06-10T04:56:28;8.05;;;7.25;;
21822;SDS011;11074;48.596;9.238;2023-06-10T04:58:55;8.23;;;7.43;;
21822;SDS011;11074;48.596;9.238;2023-06-10T05:01:25;8.10;;;7.22;;
21822;SDS011;11074;48.596;9.238;2023-06-10T05:03:51;12.13;;;7.75;;
21822;SDS011;11074;48.596;9.238;2023-06-10T05:06:16;9.70;;;7.35;;
21822;SDS011;11074;48.596;9.238;2023-06-10T05:08:42;8.55;;;7.68;;
21822;SDS011;11074;48.596;9.238;2023-06-10T05:11:08;9.77;;;7.40;;
21822;SDS011;11074;48.596;9.238;2023-06-10T05:13:34;10.13;;;7.28;;
21822;SDS011;11074;48.596;9.238;2023-06-10T05:15:59;9.30;;;7.43;;
21822;SDS011;11074;48.596;9.238;2023-06-10T05:18:25;7.47;;;6.78;;
21822;SDS011;11074;48.596;9.238;2023-06-10T05:20:51;8.45;;;7.45;;
21822;SDS011;11074;48.596;9.238;2023-06-10T05:23:18;8.65;;;7.20;;
21822;SDS011;11074;48.596;9.238;2023-06-10T05:25:45;8.30;;;6.80;;
21822;SDS011;11074;48.596;9.238;2023-06-10T05:28:10;8.98;;;8.07;;
21822;SDS011;11074;48.596;9.238;2023-06-10T05:30:36;8.13;;;7.32;;
21822;SDS011;11074;48.596;9.238;2023-06-10T05:33:03;10.20;;;7.80;;
21822;SDS011;11074;48.596;9.238;2023-06-10T05:35:29;8.48;;;7.18;;
21822;SDS011;11074;48.596;9.238;2023-06-10T05:37:55;8.60;;;7.70;;
21822;SDS011;11074;48.596;9.238;2023-06-10T05:40:21;9.40;;;7.68;;
21822;SDS011;11074;48.596;9.238;2023-06-10T05:42:47;7.90;;;7.10;;
21822;SDS011;11074;48.596;9.238;2023-06-10T05:45:13;8.35;;;6.93;;
21822;SDS011;11074;48.596;9.238;2023-06-10T05:47:38;10.10;;;7.28;;
21822;SDS011;11074;48.596;9.238;2023-06-10T05:50:05;8.82;;;7.63;;
21822;SDS011;11074;48.596;9.238;2023-06-10T05:52:37;8.02;;;7.22;;
21822;SDS011;11074;48.596;9.238;2023-06-10T05:55:05;9.57;;;6.65;;
21822;SDS011;11074;48.596;9.238;2023-06-10T05:57:31;8.38;;;7.38;;
21822;SDS011;11074;48.596;9.238;2023-06-10T05:59:57;10.30;;;8.02;;
21822;SDS011;11074;48.596;9.238;2023-06-10T06:02:23;8.20;;;7.13;;
21822;SDS011;11074;48.596;9.238;2023-06-10T06:04:49;8.80;;;7.10;;
21822;SDS011;11074;48.596;9.238;2023-06-10T06:07:15;8.77;;;7.00;;
21822;SDS011;11074;48.596;9.238;2023-06-10T06:09:41;11.65;;;7.35;;
21822;SDS011;11074;48.596;9.238;2023-06-10T06:12:07;7.88;;;6.80;;
21822;SDS011;11074;48.596;9.238;2023-06-10T06:14:36;7.85;;;6.93;;
21822;SDS011;11074;48.596;9.238;2023-06-10T06:17:06;10.32;;;7.15;;
21822;SDS011;11074;48.596;9.238;2023-06-10T06:19:32;9.15;;;7.00;;
21822;SDS011;11074;48.596;9.238;2023-06-10T06:21:58;8.55;;;6.80;;
21822;SDS011;11074;48.596;9.238;2023-06-10T06:24:24;8.90;;;6.60;;
21822;SDS011;11074;48.596;9.238;2023-06-10T06:26:50;8.07;;;6.47;;
21822;SDS011;11074;48.596;9.238;2023-06-10T06:29:15;8.95;;;7.22;;
21822;SDS011;11074;48.596;9.238;2023-06-10T06:31:41;7.60;;;6.80;;
21822;SDS011;11074;48.596;9.238;2023-06-10T06:34:07;7.15;;;6.20;;
21822;SDS011;11074;48.596;9.238;2023-06-10T06:36:32;7.28;;;5.78;;
21822;SDS011;11074;48.596;9.238;2023-06-10T06:38:58;7.43;;;6.63;;
21822;SDS011;11074;48.596;9.238;2023-06-10T06:41:26;7.10;;;5.95;;
21822;SDS011;11074;48.596;9.238;2023-06-10T06:43:53;7.53;;;6.63;;
21822;SDS011;11074;48.596;9.238;2023-06-10T06:46:20;7.30;;;6.38;;
21822;SDS011;11074;48.596;9.238;2023-06-10T06:48:46;7.45;;;6.25;;
21822;SDS011;11074;48.596;9.238;2023-06-10T06:51:15;7.60;;;6.47;;
21822;SDS011;11074;48.596;9.238;2023-06-10T06:53:41;6.75;;;5.65;;
21822;SDS011;11074;48.596;9.238;2023-06-10T06:56:10;7.38;;;6.10;;
21822;SDS011;11074;48.596;9.238;2023-06-10T06:58:37;8.35;;;6.65;;
21822;SDS011;11074;48.596;9.238;2023-06-10T07:01:02;7.88;;;6.55;;
21822;SDS011;11074;48.596;9.238;2023-06-10T07:03:28;7.25;;;6.45;;
21822;SDS011;11074;48.596;9.238;2023-06-10T07:05:54;7.10;;;6.10;;
21822;SDS011;11074;48.596;9.238;2023-06-10T07:08:20;7.13;;;6.10;;
21822;SDS011;11074;48.596;9.238;2023-06-10T07:10:46;7.25;;;6.50;;
21822;SDS011;11074;48.596;9.238;2023-06-10T07:13:11;7.72;;;6.30;;
21822;SDS011;11074;48.596;9.238;2023-06-10T07:15:38;8.73;;;6.05;;
21822;SDS011;11074;48.596;9.238;2023-06-10T07:18:04;6.97;;;5.80;;
21822;SDS011;11074;48.596;9.238;2023-06-10T07:20:30;8.45;;;5.97;;
21822;SDS011;11074;48.596;9.238;2023-06-10T07:22:56;8.40;;;6.28;;
21822;SDS011;11074;48.596;9.238;2023-06-10T07:25:21;7.18;;;5.75;;
21822;SDS011;11074;48.596;9.238;2023-06-10T07:27:47;7.72;;;6.30;;
21822;SDS011;11074;48.596;9.238;2023-06-10T07:30:13;8.32;;;5.97;;
21822;SDS011;11074;48.596;9.238;2023-06-10T07:32:38;6.30;;;5.70;;
21822;SDS011;11074;48.596;9.238;2023-06-10T07:35:07;8.57;;;6.13;;
21822;SDS011;11074;48.596;9.238;2023-06-10T07:37:35;8.52;;;5.82;;
21822;SDS011;11074;48.596;9.238;2023-06-10T07:40:01;6.72;;;5.93;;
21822;SDS011;11074;48.596;9.238;2023-06-10T07:42:27;6.50;;;5.82;;
21822;SDS011;11074;48.596;9.238;2023-06-10T07:44:53;7.07;;;5.85;;
21822;SDS011;11074;48.596;9.238;2023-06-10T07:47:19;8.88;;;6.00;;
21822;SDS011;11074;48.596;9.238;2023-06-10T07:49:44;7.13;;;5.57;;
21822;SDS011;11074;48.596;9.238;2023-06-10T07:52:10;6.63;;;6.00;;
21822;SDS011;11074;48.596;9.238;2023-06-10T07:54:36;6.78;;;5.90;;
21822;SDS011;11074;48.596;9.238;2023-06-10T07:57:01;5.93;;;5.32;;
21822;SDS011;11074;48.596;9.238;2023-06-10T07:59:27;7.13;;;5.50;;
21822;SDS011;11074;48.596;9.238;2023-06-10T08:01:53;7.28;;;5.50;;
21822;SDS011;11074;48.596;9.238;2023-06-10T08:04:19;6.22;;;5.03;;
21822;SDS011;11074;48.596;9.238;2023-06-10T08:06:44;6.93;;;5.60;;
21822;SDS011;11074;48.596;9.238;2023-06-10T08:09:10;6.68;;;5.22;;
21822;SDS011;11074;48.596;9.238;2023-06-10T08:11:36;6.80;;;5.78;;
21822;SDS011;11074;48.596;9.238;2023-06-10T08:14:01;5.93;;;5.00;;
21822;SDS011;11074;48.596;9.238;2023-06-10T08:16:27;147.95;;;17.23;;
21822;SDS011;11074;48.596;9.238;2023-06-10T08:18:53;9.23;;;5.78;;
21822;SDS011;11074;48.596;9.238;2023-06-10T08:21:18;9.50;;;5.53;;
21822;SDS011;11074;48.596;9.238;2023-06-10T08:23:44;6.28;;;5.45;;
21822;SDS011;11074;48.596;9.238;2023-06-10T08:26:10;10.98;;;6.25;;
21822;SDS011;11074;48.596;9.238;2023-06-10T08:28:36;8.20;;;5.60;;
21822;SDS011;11074;48.596;9.238;2023-06-10T08:31:01;5.63;;;5.03;;
21822;SDS011;11074;48.596;9.238;2023-06-10T08:33:27;6.47;;;5.43;;
21822;SDS011;11074;48.596;9.238;2023-06-10T08:35:53;6.22;;;5.18;;
21822;SDS011;11074;48.596;9.238;2023-06-10T08:38:18;5.68;;;4.97;;
21822;SDS011;11074;48.596;9.238;2023-06-10T08:40:44;5.63;;;5.03;;
21822;SDS011;11074;48.596;9.238;2023-06-10T08:43:17;7.00;;;5.70;;
21822;SDS011;11074;48.596;9.238;2023-06-10T08:46:02;5.63;;;4.72;;
21822;SDS011;11074;48.596;9.238;2023-06-10T08:48:29;6.55;;;5.10;;
21822;SDS011;11074;48.596;9.238;2023-06-10T08:50:57;5.72;;;4.70;;
21822;SDS011;11074;48.596;9.238;2023-06-10T08:53:24;6.53;;;4.90;;
21822;SDS011;11074;48.596;9.238;2023-06-10T08:55:54;6.47;;;5.20;;
21822;SDS011;11074;48.596;9.238;2023-06-10T08:58:25;6.05;;;4.63;;
21822;SDS011;11074;48.596;9.238;2023-06-10T09:00:53;5.30;;;4.72;;
21822;SDS011;11074;48.596;9.238;2023-06-10T09:03:19;6.38;;;4.78;;
21822;SDS011;11074;48.596;9.238;2023-06-10T09:05:46;6.60;;;4.80;;
21822;SDS011;11074;48.596;9.238;2023-06-10T09:08:13;5.93;;;4.78;;
21822;SDS011;11074;48.596;9.238;2023-06-10T09:10:41;5.35;;;4.65;;
21822;SDS011;11074;48.596;9.238;2023-06-10T09:13:06;5.15;;;4.65;;
21822;SDS011;11074;48.596;9.238;2023-06-10T09:15:32;5.70;;;4.38;;
21822;SDS011;11074;48.596;9.238;2023-06-10T09:17:58;4.82;;;4.32;;
21822;SDS011;11074;48.596;9.238;2023-06-10T09:20:24;5.38;;;3.90;;
21822;SDS011;11074;48.596;9.238;2023-06-10T09:22:51;5.03;;;4.07;;
21822;SDS011;11074;48.596;9.238;2023-06-10T09:25:17;4.97;;;4.35;;
21822;SDS011;11074;48.596;9.238;2023-06-10T09:27:46;6.18;;;4.40;;
21822;SDS011;11074;48.596;9.238;2023-06-10T09:30:27;6.07;;;4.47;;
21822;SDS011;11074;48.596;9.238;2023-06-10T09:32:56;4.72;;;4.28;;
21822;SDS011;11074;48.596;9.238;2023-06-10T09:35:25;5.45;;;4.53;;
21822;SDS011;11074;48.596;9.238;2023-06-10T09:37:52;4.57;;;4.18;;
21822;SDS011;11074;48.596;9.238;2023-06-10T09:40:20;5.75;;;4.35;;
21822;SDS011;11074;48.596;9.238;2023-06-10T09:42:46;4.30;;;3.83;;
21822;SDS011;11074;48.596;9.238;2023-06-10T09:45:19;4.97;;;4.22;;
21822;SDS011;11074;48.596;9.238;2023-06-10T09:47:55;5.95;;;4.28;;
21822;SDS011;11074;48.596;9.238;2023-06-10T09:50:20;6.28;;;4.70;;
21822;SDS011;11074;48.596;9.238;2023-06-10T09:52:47;5.82;;;4.78;;
21822;SDS011;11074;48.596;9.238;2023-06-10T09:55:13;4.68;;;3.80;;
21822;SDS011;11074;48.596;9.238;2023-06-10T09:57:39;5.57;;;4.10;;
21822;SDS011;11074;48.596;9.238;2023-06-10T10:00:07;5.25;;;4.60;;
21822;SDS011;11074;48.596;9.238;2023-06-10T10:02:44;5.85;;;4.35;;
21822;SDS011;11074;48.596;9.238;2023-06-10T10:05:19;4.68;;;4.18;;
21822;SDS011;11074;48.596;9.238;2023-06-10T10:07:47;4.35;;;3.95;;
21822;SDS011;11074;48.596;9.238;2023-06-10T10:10:14;4.90;;;4.15;;
21822;SDS011;11074;48.596;9.238;2023-06-10T10:12:43;4.85;;;4.35;;
21822;SDS011;11074;48.596;9.238;2023-06-10T10:15:13;6.30;;;4.28;;
21822;SDS011;11074;48.596;9.238;2023-06-10T10:17:46;5.15;;;4.65;;
21822;SDS011;11074;48.596;9.238;2023-06-10T10:20:32;4.60;;;4.18;;
21822;SDS011;11074;48.596;9.238;2023-06-10T10:23:03;4.53;;;4.13;;
21822;SDS011;11074;48.596;9.238;2023-06-10T10:25:35;4.93;;;4.00;;
21822;SDS011;11074;48.596;9.238;2023-06-10T10:28:08;4.45;;;3.97;;
21822;SDS011;11074;48.596;9.238;2023-06-10T10:30:42;5.82;;;4.18;;
21822;SDS011;11074;48.596;9.238;2023-06-10T10:33:54;5.15;;;4.15;;
21822;SDS011;11074;48.596;9.238;2023-06-10T10:36:27;4.55;;;4.07;;
21822;SDS011;11074;48.596;9.238;2023-06-10T10:38:53;4.88;;;4.05;;
21822;SDS011;11074;48.596;9.238;2023-06-10T10:41:21;5.57;;;4.13;;
21822;SDS011;11074;48.596;9.238;2023-06-10T10:43:51;6.97;;;4.20;;
21822;SDS011;11074;48.596;9.238;2023-06-10T10:46:18;4.82;;;4.30;;
21822;SDS011;11074;48.596;9.238;2023-06-10T10:48:44;4.07;;;3.63;;
21822;SDS011;11074;48.596;9.238;2023-06-10T10:51:11;6.80;;;4.15;;
21822;SDS011;11074;48.596;9.238;2023-06-10T10:53:37;5.32;;;4.35;;
21822;SDS011;11074;48.596;9.238;2023-06-10T10:56:04;5.65;;;3.80;;
21822;SDS011;11074;48.596;9.238;2023-06-10T10:58:33;4.40;;;3.67;;
21822;SDS011;11074;48.596;9.238;2023-06-10T11:00:59;6.30;;;4.00;;
21822;SDS011;11074;48.596;9.238;2023-06-10T11:03:35;5.57;;;4.10;;
21822;SDS011;11074;48.596;9.238;2023-06-10T11:06:12;4.40;;;4.00;;
21822;SDS011;11074;48.596;9.238;2023-06-10T11:16:27;4.28;;;3.70;;
21822;SDS011;11074;48.596;9.238;2023-06-10T11:18:54;4.40;;;3.50;;
21822;SDS011;11074;48.596;9.238;2023-06-10T11:21:20;5.50;;;3.97;;
21822;SDS011;11074;48.596;9.238;2023-06-10T11:23:50;4.40;;;3.42;;
21822;SDS011;11074;48.596;9.238;2023-06-10T11:31:23;4.72;;;3.47;;
21822;SDS011;11074;48.596;9.238;2023-06-10T11:33:59;3.95;;;3.55;;
21822;SDS011;11074;48.596;9.238;2023-06-10T11:36:31;5.05;;;3.85;;
21822;SDS011;11074;48.596;9.238;2023-06-10T11:39:07;4.80;;;3.40;;
21822;SDS011;11074;48.596;9.238;2023-06-10T11:41:34;5.63;;;3.70;;
21822;SDS011;11074;48.596;9.238;2023-06-10T11:44:07;4.25;;;3.55;;
21822;SDS011;11074;48.596;9.238;2023-06-10T11:46:38;4.30;;;3.50;;
21822;SDS011;11074;48.596;9.238;2023-06-10T11:49:07;5.35;;;3.85;;
21822;SDS011;11074;48.596;9.238;2023-06-10T11:51:34;4.72;;;3.97;;
21822;SDS011;11074;48.596;9.238;2023-06-10T11:54:08;4.72;;;4.13;;
21822;SDS011;11074;48.596;9.238;2023-06-10T11:56:34;4.35;;;3.78;;
21822;SDS011;11074;48.596;9.238;2023-06-10T11:59:04;5.18;;;3.78;;
21822;SDS011;11074;48.596;9.238;2023-06-10T12:01:33;3.55;;;3.10;;
21822;SDS011;11074;48.596;9.238;2023-06-10T12:04:07;6.20;;;3.50;;
21822;SDS011;11074;48.596;9.238;2023-06-10T12:06:48;3.90;;;3.28;;
21822;SDS011;11074;48.596;9.238;2023-06-10T12:09:20;4.63;;;3.30;;
21822;SDS011;11074;48.596;9.238;2023-06-10T12:11:58;5.32;;;3.20;;
21822;SDS011;11074;48.596;9.238;2023-06-10T12:20:01;3.92;;;3.20;;
21822;SDS011;11074;48.596;9.238;2023-06-10T12:22:36;4.15;;;3.08;;
21822;SDS011;11074;48.596;9.238;2023-06-10T12:25:07;8.02;;;3.00;;
21822;SDS011;11074;48.596;9.238;2023-06-10T12:27:35;4.50;;;2.88;;
21822;SDS011;11074;48.596;9.238;2023-06-10T12:30:03;3.92;;;2.88;;
21822;SDS011;11074;48.596;9.238;2023-06-10T12:35:11;3.00;;;2.70;;
21822;SDS011;11074;48.596;9.238;2023-06-10T12:37:42;2.80;;;2.47;;
21822;SDS011;11074;48.596;9.238;2023-06-10T12:40:29;4.15;;;3.08;;
21822;SDS011;11074;48.596;9.238;2023-06-10T12:43:01;3.55;;;2.70;;
21822;SDS011;11074;48.596;9.238;2023-06-10T12:45:28;4.68;;;3.05;;
21822;SDS011;11074;48.596;9.238;2023-06-10T12:48:06;4.72;;;3.10;;
21822;SDS011;11074;48.596;9.238;2023-06-10T12:50:46;7.97;;;3.08;;
21822;SDS011;11074;48.596;9.238;2023-06-10T12:53:20;3.50;;;3.17;;
21822;SDS011;11074;48.596;9.238;2023-06-10T12:55:48;3.70;;;3.10;;
21822;SDS011;11074;48.596;9.238;2023-06-10T12:58:14;4.43;;;3.15;;
21822;SDS011;11074;48.596;9.238;2023-06-10T13:00:40;3.28;;;2.80;;
21822;SDS011;11074;48.596;9.238;2023-06-10T13:03:07;3.47;;;2.78;;
21822;SDS011;11074;48.596;9.238;2023-06-10T13:05:35;3.90;;;3.08;;
21822;SDS011;11074;48.596;9.238;2023-06-10T13:08:03;6.70;;;3.42;;
21822;SDS011;11074;48.596;9.238;2023-06-10T13:10:35;3.53;;;3.20;;
21822;SDS011;11074;48.596;9.238;2023-06-10T13:13:01;3.17;;;2.72;;
21822;SDS011;11074;48.596;9.238;2023-06-10T13:15:31;3.30;;;2.92;;
21822;SDS011;11074;48.596;9.238;2023-06-10T13:18:01;3.03;;;2.55;;
21822;SDS011;11074;48.596;9.238;2023-06-10T13:20:28;3.03;;;2.58;;
21822;SDS011;11074;48.596;9.238;2023-06-10T13:22:54;3.63;;;2.88;;
21822;SDS011;11074;48.596;9.238;2023-06-10T13:25:20;4.80;;;3.15;;
21822;SDS011;11074;48.596;9.238;2023-06-10T13:27:46;4.20;;;3.00;;
21822;SDS011;11074;48.596;9.238;2023-06-10T13:30:12;3.63;;;3.08;;
21822;SDS011;11074;48.596;9.238;2023-06-10T13:32:37;4.50;;;3.30;;
21822;SDS011;11074;48.596;9.238;2023-06-10T13:35:04;3.63;;;3.00;;
21822;SDS011;11074;48.596;9.238;2023-06-10T13:37:30;4.03;;;2.80;;
21822;SDS011;11074;48.596;9.238;2023-06-10T13:39:56;2.45;;;2.25;;
21822;SDS011;11074;48.596;9.238;2023-06-10T13:42:22;3.08;;;1.95;;
21822;SDS011;11074;48.596;9.238;2023-06-10T13:44:48;2.50;;;2.22;;
21822;SDS011;11074;48.596;9.238;2023-06-10T13:47:14;4.30;;;2.90;;
21822;SDS011;11074;48.596;9.238;2023-06-10T13:49:40;3.15;;;2.75;;
21822;SDS011;11074;48.596;9.238;2023-06-10T13:52:06;4.97;;;3.13;;
21822;SDS011;11074;48.596;9.238;2023-06-10T13:54:32;4.03;;;3.25;;
21822;SDS011;11074;48.596;9.238;2023-06-10T13:57:02;7.50;;;3.30;;
21822;SDS011;11074;48.596;9.238;2023-06-10T13:59:28;3.30;;;2.90;;
21822;SDS011;11074;48.596;9.238;2023-06-10T14:01:54;4.30;;;2.60;;
21822;SDS011;11074;48.596;9.238;2023-06-10T14:04:21;5.30;;;2.75;;
21822;SDS011;11074;48.596;9.238;2023-06-10T14:06:47;6.55;;;2.45;;
21822;SDS011;11074;48.596;9.238;2023-06-10T14:09:13;4.18;;;2.53;;
21822;SDS011;11074;48.596;9.238;2023-06-10T14:11:39;6.07;;;2.67;;
21822;SDS011;11074;48.596;9.238;2023-06-10T14:14:05;4.13;;;2.95;;
21822;SDS011;11074;48.596;9.238;2023-06-10T14:16:31;4.13;;;3.20;;
21822;SDS011;11074;48.596;9.238;2023-06-10T14:18:57;5.43;;;3.00;;
21822;SDS011;11074;48.596;9.238;2023-06-10T14:21:22;3.70;;;2.78;;
21822;SDS011;11074;48.596;9.238;2023-06-10T14:23:48;5.53;;;2.50;;
21822;SDS011;11074;48.596;9.238;2023-06-10T14:26:15;6.00;;;3.05;;
21822;SDS011;11074;48.596;9.238;2023-06-10T14:28:41;4.80;;;3.05;;
21822;SDS011;11074;48.596;9.238;2023-06-10T14:31:06;6.15;;;2.88;;
21822;SDS011;11074;48.596;9.238;2023-06-10T14:33:32;4.60;;;2.60;;
21822;SDS011;11074;48.596;9.238;2023-06-10T14:35:59;7.30;;;3.00;;
21822;SDS011;11074;48.596;9.238;2023-06-10T14:38:24;4.93;;;2.88;;
21822;SDS011;11074;48.596;9.238;2023-06-10T14:40:50;3.78;;;2.90;;
21822;SDS011;11074;48.596;9.238;2023-06-10T14:43:17;4.85;;;2.75;;
21822;SDS011;11074;48.596;9.238;2023-06-10T14:45:43;4.35;;;3.10;;
21822;SDS011;11074;48.596;9.238;2023-06-10T14:48:10;4.18;;;3.00;;
21822;SDS011;11074;48.596;9.238;2023-06-10T14:50:36;5.10;;;3.10;;
21822;SDS011;11074;48.596;9.238;2023-06-10T14:53:03;5.05;;;2.83;;
21822;SDS011;11074;48.596;9.238;2023-06-10T14:55:30;4.07;;;2.92;;
21822;SDS011;11074;48.596;9.238;2023-06-10T14:57:55;3.40;;;2.72;;
21822;SDS011;11074;48.596;9.238;2023-06-10T15:00:22;3.45;;;2.97;;
21822;SDS011;11074;48.596;9.238;2023-06-10T15:02:50;4.50;;;2.80;;
21822;SDS011;11074;48.596;9.238;2023-06-10T15:05:16;4.70;;;3.30;;
21822;SDS011;11074;48.596;9.238;2023-06-10T15:07:46;3.13;;;2.83;;
21822;SDS011;11074;48.596;9.238;2023-06-10T15:10:12;3.70;;;3.35;;
21822;SDS011;11074;48.596;9.238;2023-06-10T15:12:38;5.78;;;3.40;;
21822;SDS011;11074;48.596;9.238;2023-06-10T15:15:04;4.13;;;3.13;;